Airfield :
LOGIN :

Register | Disclaimer

   EN    FR    IT 

 










Legend :    VFR   Marginal VFR   IFR   Intensive IFR   Very Intensive IFR
Visi :
Ceiling :
>= 8 km
>= 3000ft
5 to 8 km
1000 to 3000 ft
1500m to 5 km
500 to 1000 ft
800 to 1500m
200 to 500 ft
< 800m
< 200 ft
Symbols :   Thunderstorms  Fog  Heavy snow  Heavy precipitations  Wind > 20 kt
SIGMETs :     Misc.  Thunderstorms  Icing  Turbulence  Mountain Waves  Volcanic Ashes






- Airport Elevation : 330 ft
- IATA code : LVA


LFOV - Laval-Entrammes

CURRENT METAR :
  • 281400Z AUTO 22013G26KT 190V250 9999 BKN027/// BKN052/// BKN070/// ///TCU 14/11 Q1011

EXPIRED METARs :
  • 281330Z AUTO 22013KT 200V260 9999 FEW026 BKN032 OVC120 15/10 Q1011
  • 281300Z AUTO 22015KT 180V250 9999 BKN028/// BKN036/// BKN047/// ///CB 15/10 Q1011
  • 281230Z AUTO 22013G25KT 190V260 9999 FEW024 BKN029 BKN034 14/11 Q1011
  • 281200Z AUTO 21015KT 180V250 9999 BKN023/// BKN028/// BKN034/// ///CB 14/11 Q1011
  • 281130Z AUTO 21012KT 9999 SCT021/// BKN054/// BKN088/// ///CB 14/11 Q1011

TAF N/A



MET'MAP, your aeronautical weather chart ! - Copyright ORBIFLY December 2007 - Disclaimer

ORBIFLY MET'MAP TEAM :

Programming & Development : Alexandra Zaïnal
Concept & original design : Baudouin d'Aumeries
Assistance for programming : Marc-Olivier Méhu
Technical & hardware support : Manuel Goepfert

Contact : metmap@orbifly.com




SOURCES & CREDITS :

   NOAA